sensor_id;sensor_type;location;lat;lon;timestamp;temperature;humidity
55795;DHT22;41716;51.910;4.430;2023-08-31T00:04:41;13.90;99.90
55795;DHT22;41716;51.910;4.430;2023-08-31T00:09:44;15.60;99.90
55795;DHT22;41716;51.910;4.430;2023-08-31T00:14:46;15.60;99.90
55795;DHT22;41716;51.910;4.430;2023-08-31T00:19:48;16.30;99.90
55795;DHT22;41716;51.910;4.430;2023-08-31T00:24:51;15.30;99.90
55795;DHT22;41716;51.910;4.430;2023-08-31T00:29:53;16.80;99.90
55795;DHT22;41716;51.910;4.430;2023-08-31T00:34:56;16.10;99.90
55795;DHT22;41716;51.910;4.430;2023-08-31T00:39:59;15.70;99.90
55795;DHT22;41716;51.910;4.430;2023-08-31T00:45:00;13.30;99.90
55795;DHT22;41716;51.910;4.430;2023-08-31T00:50:02;13.70;99.90
55795;DHT22;41716;51.910;4.430;2023-08-31T00:55:06;16.00;99.90
55795;DHT22;41716;51.910;4.430;2023-08-31T01:00:10;16.60;99.90
55795;DHT22;41716;51.910;4.430;2023-08-31T01:05:13;15.90;99.90
55795;DHT22;41716;51.910;4.430;2023-08-31T01:10:25;16.60;99.90
55795;DHT22;41716;51.910;4.430;2023-08-31T01:15:30;15.40;99.90
55795;DHT22;41716;51.910;4.430;2023-08-31T01:20:34;14.20;99.90
55795;DHT22;41716;51.910;4.430;2023-08-31T01:25:40;15.20;99.90
55795;DHT22;41716;51.910;4.430;2023-08-31T01:30:43;16.10;99.90
55795;DHT22;41716;51.910;4.430;2023-08-31T01:35:47;15.60;99.90
55795;DHT22;41716;51.910;4.430;2023-08-31T01:40:52;13.50;99.90
55795;DHT22;41716;51.910;4.430;2023-08-31T01:45:56;15.40;99.90
55795;DHT22;41716;51.910;4.430;2023-08-31T01:50:58;16.60;99.90
55795;DHT22;41716;51.910;4.430;2023-08-31T01:56:03;15.20;99.90
55795;DHT22;41716;51.910;4.430;2023-08-31T02:01:05;17.00;99.90
55795;DHT22;41716;51.910;4.430;2023-08-31T02:06:06;16.20;99.90
55795;DHT22;41716;51.910;4.430;2023-08-31T02:11:09;16.80;99.90
55795;DHT22;41716;51.910;4.430;2023-08-31T02:16:11;14.00;99.90
55795;DHT22;41716;51.910;4.430;2023-08-31T02:21:12;13.70;99.90
55795;DHT22;41716;51.910;4.430;2023-08-31T02:26:15;17.20;99.90
55795;DHT22;41716;51.910;4.430;2023-08-31T02:31:17;14.90;99.90
55795;DHT22;41716;51.910;4.430;2023-08-31T02:36:19;16.60;99.90
55795;DHT22;41716;51.910;4.430;2023-08-31T02:41:23;14.10;99.90
55795;DHT22;41716;51.910;4.430;2023-08-31T02:46:24;14.90;99.90
55795;DHT22;41716;51.910;4.430;2023-08-31T02:51:26;13.70;99.90
55795;DHT22;41716;51.910;4.430;2023-08-31T02:56:29;16.40;99.90
55795;DHT22;41716;51.910;4.430;2023-08-31T03:01:31;16.00;99.90
55795;DHT22;41716;51.910;4.430;2023-08-31T03:06:32;14.10;99.90
55795;DHT22;41716;51.910;4.430;2023-08-31T03:11:35;13.90;99.90
55795;DHT22;41716;51.910;4.430;2023-08-31T03:16:37;15.60;99.90
55795;DHT22;41716;51.910;4.430;2023-08-31T03:21:38;15.90;99.90
55795;DHT22;41716;51.910;4.430;2023-08-31T03:26:41;16.40;99.90
55795;DHT22;41716;51.910;4.430;2023-08-31T03:31:43;15.40;99.90
55795;DHT22;41716;51.910;4.430;2023-08-31T03:36:44;16.20;99.90
55795;DHT22;41716;51.910;4.430;2023-08-31T03:41:47;14.70;99.90
55795;DHT22;41716;51.910;4.430;2023-08-31T03:46:49;14.70;99.90
55795;DHT22;41716;51.910;4.430;2023-08-31T03:51:50;16.10;99.90
55795;DHT22;41716;51.910;4.430;2023-08-31T03:56:54;14.40;99.90
55795;DHT22;41716;51.910;4.430;2023-08-31T04:01:56;16.00;99.90
55795;DHT22;41716;51.910;4.430;2023-08-31T04:06:57;14.70;99.90
55795;DHT22;41716;51.910;4.430;2023-08-31T04:12:00;16.00;99.90
55795;DHT22;41716;51.910;4.430;2023-08-31T04:17:02;14.80;99.90
55795;DHT22;41716;51.910;4.430;2023-08-31T04:22:05;14.60;99.90
55795;DHT22;41716;51.910;4.430;2023-08-31T04:27:08;16.00;99.90
55795;DHT22;41716;51.910;4.430;2023-08-31T04:32:09;14.60;99.90
55795;DHT22;41716;51.910;4.430;2023-08-31T04:37:11;14.70;99.90
55795;DHT22;41716;51.910;4.430;2023-08-31T04:42:14;14.70;99.90
55795;DHT22;41716;51.910;4.430;2023-08-31T04:47:17;15.60;99.90
55795;DHT22;41716;51.910;4.430;2023-08-31T04:52:18;14.30;99.90
55795;DHT22;41716;51.910;4.430;2023-08-31T04:57:21;15.40;99.90
55795;DHT22;41716;51.910;4.430;2023-08-31T05:02:24;16.00;99.90
55795;DHT22;41716;51.910;4.430;2023-08-31T05:07:25;14.60;99.90
55795;DHT22;41716;51.910;4.430;2023-08-31T05:12:28;15.70;99.90
55795;DHT22;41716;51.910;4.430;2023-08-31T05:17:29;15.40;99.90
55795;DHT22;41716;51.910;4.430;2023-08-31T05:22:31;15.40;99.90
55795;DHT22;41716;51.910;4.430;2023-08-31T05:27:34;15.30;99.90
55795;DHT22;41716;51.910;4.430;2023-08-31T05:32:35;16.20;99.90
55795;DHT22;41716;51.910;4.430;2023-08-31T05:37:37;16.50;99.90
55795;DHT22;41716;51.910;4.430;2023-08-31T05:42:40;14.80;99.90
55795;DHT22;41716;51.910;4.430;2023-08-31T05:47:41;16.50;99.90
55795;DHT22;41716;51.910;4.430;2023-08-31T05:52:43;15.00;99.90
55795;DHT22;41716;51.910;4.430;2023-08-31T05:57:46;16.80;99.90
55795;DHT22;41716;51.910;4.430;2023-08-31T06:02:47;16.80;99.90
55795;DHT22;41716;51.910;4.430;2023-08-31T06:07:49;17.10;99.90
55795;DHT22;41716;51.910;4.430;2023-08-31T06:12:52;16.80;99.90
55795;DHT22;41716;51.910;4.430;2023-08-31T06:17:53;17.00;99.90
55795;DHT22;41716;51.910;4.430;2023-08-31T06:22:55;17.50;99.90
55795;DHT22;41716;51.910;4.430;2023-08-31T06:27:58;17.60;99.90
55795;DHT22;41716;51.910;4.430;2023-08-31T06:32:59;17.30;99.90
55795;DHT22;41716;51.910;4.430;2023-08-31T06:38:01;17.60;99.90
55795;DHT22;41716;51.910;4.430;2023-08-31T06:43:04;18.30;99.90
55795;DHT22;41716;51.910;4.430;2023-08-31T06:48:06;19.00;99.90
55795;DHT22;41716;51.910;4.430;2023-08-31T06:53:07;18.70;99.90
55795;DHT22;41716;51.910;4.430;2023-08-31T06:58:10;19.30;99.90
55795;DHT22;41716;51.910;4.430;2023-08-31T07:03:12;19.30;99.90
55795;DHT22;41716;51.910;4.430;2023-08-31T07:08:13;19.70;99.90
55795;DHT22;41716;51.910;4.430;2023-08-31T07:13:16;20.70;99.90
55795;DHT22;41716;51.910;4.430;2023-08-31T07:18:18;20.50;99.90
55795;DHT22;41716;51.910;4.430;2023-08-31T07:23:19;21.20;99.90
55795;DHT22;41716;51.910;4.430;2023-08-31T07:28:22;21.20;99.90
55795;DHT22;41716;51.910;4.430;2023-08-31T07:33:23;21.30;99.90
55795;DHT22;41716;51.910;4.430;2023-08-31T07:38:25;21.70;99.90
55795;DHT22;41716;51.910;4.430;2023-08-31T07:43:28;22.40;99.90
55795;DHT22;41716;51.910;4.430;2023-08-31T07:48:30;22.50;99.90
55795;DHT22;41716;51.910;4.430;2023-08-31T07:53:31;22.80;99.90
55795;DHT22;41716;51.910;4.430;2023-08-31T07:58:34;22.70;99.90
55795;DHT22;41716;51.910;4.430;2023-08-31T08:03:36;22.60;99.90
55795;DHT22;41716;51.910;4.430;2023-08-31T08:08:37;22.30;99.90
55795;DHT22;41716;51.910;4.430;2023-08-31T08:13:40;23.00;99.90
55795;DHT22;41716;51.910;4.430;2023-08-31T08:18:42;23.60;99.90
55795;DHT22;41716;51.910;4.430;2023-08-31T08:23:43;23.70;99.90
55795;DHT22;41716;51.910;4.430;2023-08-31T08:28:46;23.90;99.90
55795;DHT22;41716;51.910;4.430;2023-08-31T08:33:47;24.10;99.90
55795;DHT22;41716;51.910;4.430;2023-08-31T08:38:49;23.60;99.90
55795;DHT22;41716;51.910;4.430;2023-08-31T08:43:54;24.20;99.90
55795;DHT22;41716;51.910;4.430;2023-08-31T08:48:57;23.80;99.90
55795;DHT22;41716;51.910;4.430;2023-08-31T08:54:01;24.70;99.90
55795;DHT22;41716;51.910;4.430;2023-08-31T08:59:04;25.20;99.90
55795;DHT22;41716;51.910;4.430;2023-08-31T09:04:06;23.80;99.90
55795;DHT22;41716;51.910;4.430;2023-08-31T09:09:08;24.40;99.90
55795;DHT22;41716;51.910;4.430;2023-08-31T09:14:14;24.80;99.90
55795;DHT22;41716;51.910;4.430;2023-08-31T09:19:20;25.20;99.90
55795;DHT22;41716;51.910;4.430;2023-08-31T09:24:21;24.90;99.90
55795;DHT22;41716;51.910;4.430;2023-08-31T09:29:24;24.80;99.90
55795;DHT22;41716;51.910;4.430;2023-08-31T09:34:32;25.60;99.90
55795;DHT22;41716;51.910;4.430;2023-08-31T09:39:37;26.10;99.90
55795;DHT22;41716;51.910;4.430;2023-08-31T09:44:43;25.00;99.90
55795;DHT22;41716;51.910;4.430;2023-08-31T09:49:46;26.20;99.90
55795;DHT22;41716;51.910;4.430;2023-08-31T09:54:48;26.90;99.90
55795;DHT22;41716;51.910;4.430;2023-08-31T09:59:52;27.00;99.90
55795;DHT22;41716;51.910;4.430;2023-08-31T10:04:54;27.00;99.90
55795;DHT22;41716;51.910;4.430;2023-08-31T10:09:56;27.10;99.90
55795;DHT22;41716;51.910;4.430;2023-08-31T10:14:59;27.90;99.90
55795;DHT22;41716;51.910;4.430;2023-08-31T10:20:01;26.70;99.90
55795;DHT22;41716;51.910;4.430;2023-08-31T10:25:04;28.10;99.90
55795;DHT22;41716;51.910;4.430;2023-08-31T10:30:15;27.60;99.90
55795;DHT22;41716;51.910;4.430;2023-08-31T10:35:17;28.20;99.90
55795;DHT22;41716;51.910;4.430;2023-08-31T10:40:19;29.00;99.90
55795;DHT22;41716;51.910;4.430;2023-08-31T10:45:22;28.30;99.90
55795;DHT22;41716;51.910;4.430;2023-08-31T10:50:24;29.30;99.90
55795;DHT22;41716;51.910;4.430;2023-08-31T10:55:26;30.00;99.90
55795;DHT22;41716;51.910;4.430;2023-08-31T11:00:50;29.70;99.90
55795;DHT22;41716;51.910;4.430;2023-08-31T11:05:52;29.70;99.90
55795;DHT22;41716;51.910;4.430;2023-08-31T11:10:54;30.40;99.90
55795;DHT22;41716;51.910;4.430;2023-08-31T11:15:56;29.90;99.90
55795;DHT22;41716;51.910;4.430;2023-08-31T11:20:58;29.80;99.90
55795;DHT22;41716;51.910;4.430;2023-08-31T11:26:00;30.60;99.90
55795;DHT22;41716;51.910;4.430;2023-08-31T11:31:05;30.70;99.90
55795;DHT22;41716;51.910;4.430;2023-08-31T11:36:06;30.10;99.90
55795;DHT22;41716;51.910;4.430;2023-08-31T11:41:08;30.70;99.90
55795;DHT22;41716;51.910;4.430;2023-08-31T11:46:11;31.20;99.30
55795;DHT22;41716;51.910;4.430;2023-08-31T11:51:13;31.20;99.80
55795;DHT22;41716;51.910;4.430;2023-08-31T11:56:15;30.40;99.50
55795;DHT22;41716;51.910;4.430;2023-08-31T12:01:19;30.60;99.60
55795;DHT22;41716;51.910;4.430;2023-08-31T12:06:21;31.20;99.80
55795;DHT22;41716;51.910;4.430;2023-08-31T12:11:22;30.10;98.80
55795;DHT22;41716;51.910;4.430;2023-08-31T12:16:25;30.00;99.20
55795;DHT22;41716;51.910;4.430;2023-08-31T12:21:32;30.20;99.90
55795;DHT22;41716;51.910;4.430;2023-08-31T12:26:34;30.10;98.30
55795;DHT22;41716;51.910;4.430;2023-08-31T12:31:37;30.80;97.60
55795;DHT22;41716;51.910;4.430;2023-08-31T12:36:39;30.20;97.30
55795;DHT22;41716;51.910;4.430;2023-08-31T12:41:41;30.10;97.90
55795;DHT22;41716;51.910;4.430;2023-08-31T12:46:44;29.90;99.00
55795;DHT22;41716;51.910;4.430;2023-08-31T12:51:46;30.40;97.40
55795;DHT22;41716;51.910;4.430;2023-08-31T12:56:47;30.70;97.50
55795;DHT22;41716;51.910;4.430;2023-08-31T13:01:50;30.30;98.20
55795;DHT22;41716;51.910;4.430;2023-08-31T13:06:52;30.40;96.80
55795;DHT22;41716;51.910;4.430;2023-08-31T13:11:53;31.00;97.00
55795;DHT22;41716;51.910;4.430;2023-08-31T13:16:56;30.70;97.70
55795;DHT22;41716;51.910;4.430;2023-08-31T13:21:58;31.70;96.50
55795;DHT22;41716;51.910;4.430;2023-08-31T13:26:59;31.90;99.10
55795;DHT22;41716;51.910;4.430;2023-08-31T13:32:02;30.90;98.00
55795;DHT22;41716;51.910;4.430;2023-08-31T13:37:04;30.60;99.90
55795;DHT22;41716;51.910;4.430;2023-08-31T13:42:06;30.40;96.60
55795;DHT22;41716;51.910;4.430;2023-08-31T13:47:09;30.60;96.30
55795;DHT22;41716;51.910;4.430;2023-08-31T13:52:11;30.70;96.80
55795;DHT22;41716;51.910;4.430;2023-08-31T13:57:12;30.90;96.30
55795;DHT22;41716;51.910;4.430;2023-08-31T14:02:19;30.60;97.70
55795;DHT22;41716;51.910;4.430;2023-08-31T14:07:20;30.10;95.90
55795;DHT22;41716;51.910;4.430;2023-08-31T14:12:23;30.40;99.90
55795;DHT22;41716;51.910;4.430;2023-08-31T14:17:26;30.70;97.30
55795;DHT22;41716;51.910;4.430;2023-08-31T14:22:27;30.00;96.90
55795;DHT22;41716;51.910;4.430;2023-08-31T14:27:29;29.90;97.70
55795;DHT22;41716;51.910;4.430;2023-08-31T14:32:32;30.30;97.60
55795;DHT22;41716;51.910;4.430;2023-08-31T14:37:34;29.10;96.00
55795;DHT22;41716;51.910;4.430;2023-08-31T14:42:35;29.50;97.40
55795;DHT22;41716;51.910;4.430;2023-08-31T14:47:38;30.20;99.90
55795;DHT22;41716;51.910;4.430;2023-08-31T14:52:40;29.80;99.00
55795;DHT22;41716;51.910;4.430;2023-08-31T14:57:41;29.10;97.70
55795;DHT22;41716;51.910;4.430;2023-08-31T15:02:44;29.60;99.30
55795;DHT22;41716;51.910;4.430;2023-08-31T15:07:47;29.50;99.90
55795;DHT22;41716;51.910;4.430;2023-08-31T15:12:49;29.10;98.50
55795;DHT22;41716;51.910;4.430;2023-08-31T15:17:52;28.60;97.30
55795;DHT22;41716;51.910;4.430;2023-08-31T15:22:54;27.80;98.20
55795;DHT22;41716;51.910;4.430;2023-08-31T15:27:55;28.00;98.50
55795;DHT22;41716;51.910;4.430;2023-08-31T15:33:01;28.60;99.90
55795;DHT22;41716;51.910;4.430;2023-08-31T15:38:04;28.00;98.70
55795;DHT22;41716;51.910;4.430;2023-08-31T15:43:05;27.20;99.70
55795;DHT22;41716;51.910;4.430;2023-08-31T15:48:09;25.70;99.40
55795;DHT22;41716;51.910;4.430;2023-08-31T15:53:10;27.00;99.90
55795;DHT22;41716;51.910;4.430;2023-08-31T15:58:12;27.50;99.90
55795;DHT22;41716;51.910;4.430;2023-08-31T16:03:15;27.50;99.90
55795;DHT22;41716;51.910;4.430;2023-08-31T16:08:16;27.00;99.90
55795;DHT22;41716;51.910;4.430;2023-08-31T16:13:18;27.00;99.90
55795;DHT22;41716;51.910;4.430;2023-08-31T16:18:21;27.60;99.90
55795;DHT22;41716;51.910;4.430;2023-08-31T16:23:23;26.70;99.90
55795;DHT22;41716;51.910;4.430;2023-08-31T16:28:24;25.50;99.90
55795;DHT22;41716;51.910;4.430;2023-08-31T16:33:27;24.80;99.90
55795;DHT22;41716;51.910;4.430;2023-08-31T16:38:29;25.20;99.90
55795;DHT22;41716;51.910;4.430;2023-08-31T16:43:31;25.00;99.90
55795;DHT22;41716;51.910;4.430;2023-08-31T16:48:34;24.60;99.90
55795;DHT22;41716;51.910;4.430;2023-08-31T16:53:35;24.60;99.90
55795;DHT22;41716;51.910;4.430;2023-08-31T16:58:38;24.40;99.90
55795;DHT22;41716;51.910;4.430;2023-08-31T17:03:41;23.90;99.90
55795;DHT22;41716;51.910;4.430;2023-08-31T17:08:43;23.90;99.90
55795;DHT22;41716;51.910;4.430;2023-08-31T17:13:44;23.90;99.90
55795;DHT22;41716;51.910;4.430;2023-08-31T17:18:47;23.60;99.90
55795;DHT22;41716;51.910;4.430;2023-08-31T17:23:49;23.70;99.90
55795;DHT22;41716;51.910;4.430;2023-08-31T17:28:50;22.80;99.90
55795;DHT22;41716;51.910;4.430;2023-08-31T17:33:53;23.30;99.90
55795;DHT22;41716;51.910;4.430;2023-08-31T17:38:56;23.20;99.90
55795;DHT22;41716;51.910;4.430;2023-08-31T17:43:57;23.30;99.90
55795;DHT22;41716;51.910;4.430;2023-08-31T17:49:00;23.30;99.90
55795;DHT22;41716;51.910;4.430;2023-08-31T17:54:02;22.80;99.90
55795;DHT22;41716;51.910;4.430;2023-08-31T17:59:03;22.70;99.90
55795;DHT22;41716;51.910;4.430;2023-08-31T18:04:06;23.10;99.90
55795;DHT22;41716;51.910;4.430;2023-08-31T18:09:08;22.90;99.90
55795;DHT22;41716;51.910;4.430;2023-08-31T18:14:10;22.60;99.90
55795;DHT22;41716;51.910;4.430;2023-08-31T18:19:13;22.50;99.90
55795;DHT22;41716;51.910;4.430;2023-08-31T18:24:15;21.90;99.90
55795;DHT22;41716;51.910;4.430;2023-08-31T18:29:16;21.80;99.90
55795;DHT22;41716;51.910;4.430;2023-08-31T18:34:19;21.50;99.90
55795;DHT22;41716;51.910;4.430;2023-08-31T18:39:21;21.80;99.90
55795;DHT22;41716;51.910;4.430;2023-08-31T18:44:22;21.90;99.90
55795;DHT22;41716;51.910;4.430;2023-08-31T18:49:26;21.50;99.90
55795;DHT22;41716;51.910;4.430;2023-08-31T18:54:27;21.70;99.90
55795;DHT22;41716;51.910;4.430;2023-08-31T18:59:31;22.00;99.90
55795;DHT22;41716;51.910;4.430;2023-08-31T19:04:34;21.30;99.90
55795;DHT22;41716;51.910;4.430;2023-08-31T19:09:35;21.80;99.90
55795;DHT22;41716;51.910;4.430;2023-08-31T19:14:38;22.50;99.90
55795;DHT22;41716;51.910;4.430;2023-08-31T19:19:40;22.00;99.90
55795;DHT22;41716;51.910;4.430;2023-08-31T19:24:42;21.00;99.90
55795;DHT22;41716;51.910;4.430;2023-08-31T19:29:43;21.20;99.90
55795;DHT22;41716;51.910;4.430;2023-08-31T19:34:46;21.60;99.90
55795;DHT22;41716;51.910;4.430;2023-08-31T19:39:48;21.20;99.90
55795;DHT22;41716;51.910;4.430;2023-08-31T19:44:49;20.70;99.90
55795;DHT22;41716;51.910;4.430;2023-08-31T19:49:52;20.30;99.90
55795;DHT22;41716;51.910;4.430;2023-08-31T19:54:54;21.50;99.90
55795;DHT22;41716;51.910;4.430;2023-08-31T19:59:55;20.40;99.90
55795;DHT22;41716;51.910;4.430;2023-08-31T20:04:58;21.00;99.90
55795;DHT22;41716;51.910;4.430;2023-08-31T20:10:00;20.10;99.90
55795;DHT22;41716;51.910;4.430;2023-08-31T20:15:02;20.50;99.90
55795;DHT22;41716;51.910;4.430;2023-08-31T20:20:05;20.10;99.90
55795;DHT22;41716;51.910;4.430;2023-08-31T20:25:08;19.70;99.90
55795;DHT22;41716;51.910;4.430;2023-08-31T20:30:10;20.10;99.90
55795;DHT22;41716;51.910;4.430;2023-08-31T20:35:14;20.10;99.90
55795;DHT22;41716;51.910;4.430;2023-08-31T20:40:15;20.10;99.90
55795;DHT22;41716;51.910;4.430;2023-08-31T20:45:17;20.30;99.90
55795;DHT22;41716;51.910;4.430;2023-08-31T20:50:20;20.40;99.90
55795;DHT22;41716;51.910;4.430;2023-08-31T20:55:22;19.40;99.90
55795;DHT22;41716;51.910;4.430;2023-08-31T21:00:23;19.70;99.90
55795;DHT22;41716;51.910;4.430;2023-08-31T21:05:26;19.40;99.90
55795;DHT22;41716;51.910;4.430;2023-08-31T21:10:28;20.20;99.90
55795;DHT22;41716;51.910;4.430;2023-08-31T21:15:29;20.50;99.90
55795;DHT22;41716;51.910;4.430;2023-08-31T21:20:33;19.20;99.90
55795;DHT22;41716;51.910;4.430;2023-08-31T21:25:35;20.10;99.90
55795;DHT22;41716;51.910;4.430;2023-08-31T21:30:37;19.80;99.90
55795;DHT22;41716;51.910;4.430;2023-08-31T21:35:40;18.60;99.90
55795;DHT22;41716;51.910;4.430;2023-08-31T21:40:44;18.50;99.90
55795;DHT22;41716;51.910;4.430;2023-08-31T21:45:47;20.10;99.90
55795;DHT22;41716;51.910;4.430;2023-08-31T21:50:51;20.20;99.90
55795;DHT22;41716;51.910;4.430;2023-08-31T21:55:52;19.80;99.90
55795;DHT22;41716;51.910;4.430;2023-08-31T22:00:54;19.30;99.90
55795;DHT22;41716;51.910;4.430;2023-08-31T22:05:57;18.70;99.90
55795;DHT22;41716;51.910;4.430;2023-08-31T22:11:05;20.00;99.90
55795;DHT22;41716;51.910;4.430;2023-08-31T22:16:07;19.20;99.90
55795;DHT22;41716;51.910;4.430;2023-08-31T22:21:10;17.80;99.90
55795;DHT22;41716;51.910;4.430;2023-08-31T22:26:11;18.40;99.90
55795;DHT22;41716;51.910;4.430;2023-08-31T22:31:13;20.40;99.90
55795;DHT22;41716;51.910;4.430;2023-08-31T22:36:16;18.70;99.90
55795;DHT22;41716;51.910;4.430;2023-08-31T22:41:17;19.00;99.90
55795;DHT22;41716;51.910;4.430;2023-08-31T22:46:19;17.90;99.90
55795;DHT22;41716;51.910;4.430;2023-08-31T22:51:22;18.20;99.90
55795;DHT22;41716;51.910;4.430;2023-08-31T22:56:23;19.00;99.90
55795;DHT22;41716;51.910;4.430;2023-08-31T23:01:25;19.50;99.90
55795;DHT22;41716;51.910;4.430;2023-08-31T23:06:27;17.90;99.90
55795;DHT22;41716;51.910;4.430;2023-08-31T23:11:29;19.60;99.90
55795;DHT22;41716;51.910;4.430;2023-08-31T23:16:30;17.60;99.90
55795;DHT22;41716;51.910;4.430;2023-08-31T23:21:34;18.90;99.90
55795;DHT22;41716;51.910;4.430;2023-08-31T23:26:35;19.30;99.90
55795;DHT22;41716;51.910;4.430;2023-08-31T23:31:37;18.60;99.90
55795;DHT22;41716;51.910;4.430;2023-08-31T23:36:41;19.00;99.90
55795;DHT22;41716;51.910;4.430;2023-08-31T23:41:43;17.60;99.90
55795;DHT22;41716;51.910;4.430;2023-08-31T23:46:45;17.40;99.90
55795;DHT22;41716;51.910;4.430;2023-08-31T23:51:48;19.40;99.90
55795;DHT22;41716;51.910;4.430;2023-08-31T23:56:49;19.20;99.90
